Disclaimer

Please do not use the information listed here in-flight or in-navigation, as they are not provided to us by the airports but are provided by volunteers, so they might be outdated.

Search


Regions


Airport information page

Radio informations:
BRISBANE APP - 123.5 MHz

Airport informations:
Latitude: 28° 09' 52.00" S
Longitude: 153° 30' 17.00" E
Elevation: 21 feet - 6 meters
Operating hours: N/A
Operating agency: Civil government, landing fees and diplomatic clearance may be required
Timezone: UTC+10
Fuel: Jet A1, without icing nhibitor.

100/130 MIL Spec, low lead, aviation gasoline (BLUE)

Runway information:
14/32 - 6699 x 148 feet< - >2042 x 45 meters
17/35 - 1909 x 59 feet< - >582 x 18 meters

Recent METARs:
YBCG 181525Z AUTO 23003KT 9999 // SCT011 SCT014 OVC035 23/22 Q1012
YBCG 181530Z AUTO 23004KT 9999 // SCT014 OVC035 23/22 Q1012
YBCG 181600Z AUTO 25004KT 9999 // SCT037 22/21 Q1012

Airport on the map: